Rosthern, Canada
Current Conditions -  °F | °C
As of 6:00 AM on Friday 24 Oct 2014 (Local Time) from CYXE Reporting Station
Broken Clouds Broken Clouds  
Wind Chill: 33°   Ceiling: 12000
Heat Index: 39°   Visibility: 15mi
Dew Point: 36°   Wind: 9mph
Humidity: 87%   Direction: 250°WSW
Pressure: 29.61"   Gusts: NA
Location:  52.65°N, 106.33°W
Report Text: CYXE 241200Z 25008KT 15SM SCT081 BKN120 04/02 A2961 RMK AC3AC4 PRESRR SLP040
Loading
Personal Weather Stations






























Interactive Weather Map
Tropical Storm Tracking
New forecast layout! Learn more

10-Day Weather Forecast

Advertisements
Track Severe Weather on mobile